Elko, Minnesota
Current Conditions -  °F | °C
As of 9:48 AM on Thursday 30 Oct 2014 (Local Time) from KLVN Reporting Station
Light Rain Light Rain  
Wind Chill: 37°   Ceiling: 6500
Heat Index: 37°   Visibility: 10mi
Dew Point: 36°   Wind: 0mph
Humidity: 93%   Direction: NA
Pressure: 30.06"   Gusts: NA
Location:  44.56°N, 93.33°W
Report Text: KLVN 301448Z AUTO 00000KT 10SM -RA SCT050 BKN065 03/02 A3006 RMK AO2
Loading
Personal Weather Stations






























Interactive Weather Map
Tropical Storm Tracking
New forecast layout! Learn more

10-Day Weather Forecast

Advertisements
Track Severe Weather on mobile